createdAt,value
2019-04-21T00:00:39.732Z,5.60
2019-04-21T00:03:20.901Z,5.13
2019-04-21T00:06:07.565Z,4.77
2019-04-21T00:13:27.349Z,3.43
2019-04-21T00:15:53.907Z,4.27
2019-04-21T00:19:03.247Z,4.80
2019-04-21T00:21:34.403Z,4.03
2019-04-21T00:24:24.820Z,3.93
2019-04-21T00:27:03.853Z,4.63
2019-04-21T00:29:40.971Z,4.60
2019-04-21T00:32:01.789Z,3.50
2019-04-21T00:34:19.762Z,4.13
2019-04-21T00:36:59.645Z,4.40
2019-04-21T00:39:49.563Z,4.80
2019-04-21T00:42:11.539Z,6.67
2019-04-21T00:44:33.020Z,8.23
2019-04-21T00:47:13.941Z,8.50
2019-04-21T00:49:43.176Z,6.70
2019-04-21T00:52:47.573Z,7.70
2019-04-21T00:57:44.997Z,6.13
2019-04-21T01:00:11.904Z,6.90
2019-04-21T01:02:48.561Z,6.60
2019-04-21T01:05:16.677Z,5.97
2019-04-21T01:07:41.978Z,6.10
2019-04-21T01:10:05.283Z,6.57
2019-04-21T01:12:43.414Z,5.70
2019-04-21T01:15:21.165Z,5.93
2019-04-21T01:17:48.104Z,5.73
2019-04-21T01:20:10.212Z,7.47
2019-04-21T01:22:26.317Z,6.43
2019-04-21T01:25:05.799Z,6.80
2019-04-21T01:27:49.536Z,7.53
2019-04-21T01:30:16.315Z,6.43
2019-04-21T01:32:51.574Z,8.10
2019-04-21T01:35:21.241Z,6.93
2019-04-21T01:38:10.993Z,6.43
2019-04-21T01:40:29.605Z,7.30
2019-04-21T01:42:51.120Z,6.60
2019-04-21T01:45:21.586Z,7.43
2019-04-21T01:47:52.178Z,6.70
2019-04-21T01:50:25.911Z,7.20
2019-04-21T01:53:02.405Z,7.17
2019-04-21T01:55:48.386Z,6.33
2019-04-21T01:58:18.250Z,8.37
2019-04-21T02:01:00.842Z,7.20
2019-04-21T02:06:13.687Z,7.03
2019-04-21T02:08:37.382Z,6.60
2019-04-21T02:11:18.870Z,7.00
2019-04-21T02:13:46.819Z,7.70
2019-04-21T02:16:12.432Z,7.40
2019-04-21T02:18:39.553Z,5.80
2019-04-21T02:21:01.984Z,7.33
2019-04-21T02:24:05.464Z,7.27
2019-04-21T02:26:16.408Z,6.33
2019-04-21T02:31:28.681Z,6.30
2019-04-21T02:34:02.674Z,5.87
2019-04-21T02:39:08.384Z,7.20
2019-04-21T02:41:32.620Z,6.70
2019-04-21T02:46:42.516Z,6.90
2019-04-21T02:49:03.991Z,7.33
2019-04-21T02:59:15.232Z,5.60
2019-04-21T03:01:59.213Z,6.27
2019-04-21T03:04:32.203Z,6.17
2019-04-21T03:09:49.842Z,5.80
2019-04-21T03:12:22.339Z,5.87
2019-04-21T03:20:00.351Z,6.53
2019-04-21T03:22:26.478Z,6.83
2019-04-21T03:27:50.282Z,7.13
2019-04-21T03:30:10.374Z,5.80
2019-04-21T03:33:16.601Z,6.33
2019-04-21T03:35:39.363Z,6.70
2019-04-21T03:37:32.977Z,6.10
2019-04-21T03:39:59.825Z,5.87
2019-04-21T03:42:38.852Z,5.87
2019-04-21T03:45:06.818Z,6.20
2019-04-21T03:52:50.760Z,4.93
2019-04-21T04:03:52.202Z,4.90
2019-04-21T04:16:26.921Z,5.30
2019-04-21T04:21:37.182Z,5.77
2019-04-21T04:26:36.968Z,4.83
2019-04-21T04:34:22.015Z,5.80
2019-04-21T04:45:01.466Z,6.17
2019-04-21T04:55:01.825Z,5.03
2019-04-21T04:57:27.520Z,4.60
2019-04-21T04:59:53.059Z,5.37
2019-04-21T05:02:27.783Z,5.00
2019-04-21T05:05:04.931Z,4.93
2019-04-21T05:07:36.723Z,4.63
2019-04-21T05:09:57.655Z,6.43
2019-04-21T05:12:25.102Z,5.50
2019-04-21T05:17:30.901Z,4.90
2019-04-21T05:20:08.694Z,5.10
2019-04-21T05:22:30.977Z,4.63
2019-04-21T05:24:49.295Z,4.70
2019-04-21T05:27:34.683Z,5.50
2019-04-21T05:30:21.981Z,5.70
2019-04-21T05:32:52.978Z,5.97
2019-04-21T05:35:43.814Z,5.60
2019-04-21T05:38:17.244Z,5.60
2019-04-21T05:40:41.465Z,5.83
2019-04-21T05:43:21.586Z,4.43
2019-04-21T05:45:56.770Z,5.33
2019-04-21T05:48:48.374Z,5.90
2019-04-21T05:51:11.801Z,5.03
2019-04-21T05:53:52.723Z,4.90
2019-04-21T05:56:19.281Z,5.30
2019-04-21T05:58:48.494Z,5.70
2019-04-21T06:01:24.339Z,5.37
2019-04-21T06:04:03.969Z,5.43
2019-04-21T06:06:31.038Z,4.00
2019-04-21T06:08:52.615Z,5.57
2019-04-21T06:11:25.910Z,5.10
2019-04-21T06:16:40.366Z,4.47
2019-04-21T06:18:57.974Z,5.67
2019-04-21T06:21:31.390Z,5.53
2019-04-21T06:23:57.790Z,5.47
2019-04-21T06:28:56.872Z,5.10
2019-04-21T06:32:02.061Z,5.10
2019-04-21T06:34:08.116Z,5.57
2019-04-21T06:36:44.032Z,5.27
2019-04-21T06:39:11.647Z,5.90
2019-04-21T06:41:39.445Z,6.07
2019-04-21T06:44:16.803Z,4.77
2019-04-21T06:49:16.203Z,6.03
2019-04-21T06:51:48.192Z,5.20
2019-04-21T06:54:23.865Z,6.00
2019-04-21T06:57:04.917Z,5.23
2019-04-21T06:59:21.014Z,5.77
2019-04-21T07:01:56.739Z,5.80
2019-04-21T07:04:25.274Z,6.87
2019-04-21T07:06:57.420Z,7.30
2019-04-21T07:09:45.403Z,5.50
2019-04-21T07:11:54.974Z,4.93
2019-04-21T07:14:42.081Z,5.23
2019-04-21T07:17:06.395Z,5.00
2019-04-21T07:19:34.673Z,5.90
2019-04-21T07:22:06.070Z,5.30
2019-04-21T07:24:37.119Z,5.10
2019-04-21T07:27:11.232Z,6.00
2019-04-21T07:29:45.238Z,5.00
2019-04-21T07:32:12.736Z,4.43
2019-04-21T07:34:38.502Z,5.63
2019-04-21T07:37:06.078Z,5.23
2019-04-21T07:39:40.263Z,5.70
2019-04-21T07:42:09.731Z,6.03
2019-04-21T07:44:37.908Z,5.33
2019-04-21T07:47:15.759Z,5.13
2019-04-21T07:52:53.410Z,5.30
2019-04-21T07:57:39.088Z,5.17
2019-04-21T08:02:46.477Z,5.10
2019-04-21T08:05:13.051Z,5.67
2019-04-21T08:10:13.959Z,5.60
2019-04-21T08:12:42.963Z,6.73
2019-04-21T08:15:23.442Z,4.60
2019-04-21T08:17:41.365Z,5.67
2019-04-21T08:20:12.265Z,6.20
2019-04-21T08:27:54.498Z,5.67
2019-04-21T08:30:26.110Z,5.20
2019-04-21T08:33:00.521Z,6.00
2019-04-21T08:35:50.916Z,5.50
2019-04-21T08:37:59.124Z,5.47
2019-04-21T08:40:34.599Z,5.70
2019-04-21T08:42:55.238Z,6.27
2019-04-21T08:45:30.777Z,5.40
2019-04-21T08:47:59.169Z,4.57
2019-04-21T08:50:25.563Z,4.60
2019-04-21T08:53:04.034Z,5.07
2019-04-21T08:59:03.770Z,4.97
2019-04-21T09:02:02.941Z,5.00
2019-04-21T09:04:28.592Z,4.03
2019-04-21T09:07:25.580Z,4.90
2019-04-21T09:09:41.526Z,4.23
2019-04-21T09:12:10.656Z,5.03
2019-04-21T09:14:41.541Z,4.90
2019-04-21T09:17:12.092Z,5.03
2019-04-21T09:22:18.241Z,3.50
2019-04-21T09:24:46.862Z,3.93
2019-04-21T09:27:14.155Z,4.30
2019-04-21T09:29:40.568Z,3.90
2019-04-21T09:32:09.243Z,3.23
2019-04-21T09:34:38.510Z,3.87
2019-04-21T09:37:18.999Z,3.10
2019-04-21T09:39:43.319Z,3.00
2019-04-21T09:42:08.848Z,3.73
2019-04-21T09:44:40.899Z,4.40
2019-04-21T09:47:11.018Z,2.70
2019-04-21T09:49:41.994Z,3.90
2019-04-21T09:52:19.135Z,4.10
2019-04-21T09:54:53.011Z,3.27
2019-04-21T09:57:26.415Z,3.23
2019-04-21T09:59:53.881Z,3.40
2019-04-21T10:02:25.699Z,3.43
2019-04-21T10:04:48.280Z,3.23
2019-04-21T10:07:26.451Z,2.40
2019-04-21T10:09:50.351Z,3.60
2019-04-21T10:12:20.006Z,3.90
2019-04-21T10:14:50.174Z,4.07
2019-04-21T10:17:37.451Z,3.17
2019-04-21T10:20:11.614Z,4.30
2019-04-21T10:22:41.362Z,3.90
2019-04-21T10:25:12.371Z,3.40
2019-04-21T10:27:43.197Z,4.33
2019-04-21T10:30:14.220Z,5.17
2019-04-21T10:32:44.262Z,4.20
2019-04-21T10:35:13.275Z,3.70
2019-04-21T10:37:53.732Z,4.20
2019-04-21T10:40:13.810Z,4.30
2019-04-21T10:42:44.198Z,3.90
2019-04-21T10:45:14.735Z,4.10
2019-04-21T10:47:45.029Z,4.40
2019-04-21T10:50:18.365Z,3.90
2019-04-21T10:53:25.274Z,3.70
2019-04-21T10:56:09.653Z,4.00
2019-04-21T10:58:28.577Z,3.90
2019-04-21T11:01:08.321Z,3.80
2019-04-21T11:03:42.679Z,3.10
2019-04-21T11:06:14.967Z,3.37
2019-04-21T11:08:49.322Z,3.87
2019-04-21T11:11:18.079Z,3.43
2019-04-21T11:13:48.373Z,3.00
2019-04-21T11:16:17.580Z,3.70
2019-04-21T11:18:48.187Z,4.30
2019-04-21T11:21:18.688Z,3.90
2019-04-21T11:23:48.072Z,3.60
2019-04-21T11:26:18.033Z,4.20
2019-04-21T11:28:47.552Z,3.63
2019-04-21T11:31:18.682Z,3.60
2019-04-21T11:33:49.160Z,3.70
2019-04-21T11:36:21.480Z,2.90
2019-04-21T11:39:23.280Z,4.00
2019-04-21T11:41:41.545Z,3.60
2019-04-21T11:44:12.084Z,3.97
2019-04-21T11:46:42.486Z,4.40
2019-04-21T11:49:12.585Z,3.10
2019-04-21T11:51:42.818Z,3.17
2019-04-21T11:54:12.919Z,3.80
2019-04-21T11:56:43.179Z,2.90
2019-04-21T11:59:12.408Z,3.30
2019-04-21T12:01:41.532Z,3.80
2019-04-21T12:04:11.713Z,3.60
2019-04-21T12:06:46.679Z,3.70
2019-04-21T12:09:12.996Z,4.03
2019-04-21T12:11:43.240Z,3.33
2019-04-21T12:14:14.224Z,3.70
2019-04-21T12:16:43.482Z,3.80
2019-04-21T12:19:12.711Z,4.10
2019-04-21T12:21:53.253Z,3.23
2019-04-21T12:24:13.237Z,3.00
2019-04-21T12:26:44.160Z,3.57
2019-04-21T12:29:14.665Z,3.37
2019-04-21T12:31:59.414Z,4.07
2019-04-21T12:34:30.211Z,2.43
2019-04-21T12:37:01.447Z,2.63
2019-04-21T12:39:30.803Z,3.20
2019-04-21T12:42:07.338Z,3.70
2019-04-21T12:44:37.150Z,3.27
2019-04-21T12:47:07.866Z,3.60
2019-04-21T12:49:38.098Z,4.17
2019-04-21T12:52:07.357Z,3.50
2019-04-21T12:54:37.639Z,3.17
2019-04-21T12:57:07.732Z,3.17
2019-04-21T12:59:38.140Z,3.77
2019-04-21T13:02:09.588Z,3.70
2019-04-21T13:04:40.055Z,4.00
2019-04-21T13:07:09.802Z,4.17
2019-04-21T13:09:40.153Z,3.10
2019-04-21T13:12:09.365Z,3.60
2019-04-21T13:14:39.908Z,3.80
2019-04-21T13:17:09.850Z,2.57
2019-04-21T13:19:39.116Z,3.60
2019-04-21T13:22:12.207Z,3.57
2019-04-21T13:24:42.116Z,3.20
2019-04-21T13:27:12.776Z,3.63
2019-04-21T13:29:43.947Z,3.33
2019-04-21T13:32:14.306Z,3.47
2019-04-21T13:34:44.228Z,3.80
2019-04-21T13:37:15.271Z,3.60
2019-04-21T13:40:24.868Z,3.90
2019-04-21T13:42:42.000Z,3.67
2019-04-21T13:45:06.389Z,2.70
2019-04-21T13:47:36.745Z,3.00
2019-04-21T13:50:08.707Z,3.47
2019-04-21T13:52:38.471Z,3.40
2019-04-21T13:55:09.503Z,2.93
2019-04-21T13:57:39.067Z,3.60
2019-04-21T14:00:10.924Z,3.17
2019-04-21T14:02:40.773Z,3.50
2019-04-21T14:05:12.300Z,3.57
2019-04-21T14:07:42.057Z,3.50
2019-04-21T14:10:13.732Z,3.20
2019-04-21T14:12:42.541Z,3.27
2019-04-21T14:15:14.621Z,3.10
2019-04-21T14:17:44.743Z,3.83
2019-04-21T14:20:15.307Z,3.20
2019-04-21T14:22:46.348Z,3.30
2019-04-21T14:25:17.447Z,3.37
2019-04-21T14:27:49.026Z,2.97
2019-04-21T14:30:18.675Z,3.23
2019-04-21T14:32:48.110Z,3.87
2019-04-21T14:35:17.141Z,3.73
2019-04-21T14:37:46.703Z,3.27
2019-04-21T14:40:22.498Z,3.27
2019-04-21T14:42:48.093Z,3.60
2019-04-21T14:45:38.978Z,3.30
2019-04-21T14:48:27.356Z,3.03
2019-04-21T14:51:14.201Z,3.30
2019-04-21T14:53:56.336Z,3.47
2019-04-21T14:56:27.054Z,3.10
2019-04-21T14:58:58.717Z,3.43
2019-04-21T15:01:28.198Z,3.87
2019-04-21T15:03:57.575Z,4.73
2019-04-21T15:06:27.379Z,4.50
2019-04-21T15:08:57.530Z,3.50
2019-04-21T15:11:26.698Z,3.23
2019-04-21T15:13:57.777Z,4.00
2019-04-21T15:16:26.984Z,4.00
2019-04-21T15:18:56.796Z,3.40
2019-04-21T15:21:26.313Z,3.37
2019-04-21T15:23:58.087Z,3.80
2019-04-21T15:26:28.421Z,3.93
2019-04-21T15:28:59.156Z,4.17
2019-04-21T15:31:32.990Z,3.20
2019-04-21T15:33:59.601Z,3.27
2019-04-21T15:36:31.773Z,3.50
2019-04-21T15:39:01.445Z,3.73
2019-04-21T15:41:32.257Z,3.47
2019-04-21T15:44:03.186Z,4.23
2019-04-21T15:46:35.148Z,3.33
2019-04-21T15:49:05.032Z,3.80
2019-04-21T15:51:35.749Z,3.37
2019-04-21T15:54:04.987Z,3.47
2019-04-21T15:56:47.203Z,3.23
2019-04-21T15:59:48.441Z,2.87
2019-04-21T16:02:36.764Z,4.07
2019-04-21T16:05:06.705Z,4.20
2019-04-21T16:07:36.201Z,3.40
2019-04-21T16:10:08.691Z,3.40
2019-04-21T16:12:37.904Z,4.00
2019-04-21T16:15:10.270Z,3.70
2019-04-21T16:17:41.307Z,4.57
2019-04-21T16:20:12.277Z,3.60
2019-04-21T16:22:42.416Z,4.63
2019-04-21T16:25:12.834Z,3.77
2019-04-21T16:27:43.482Z,3.50
2019-04-21T16:30:15.600Z,4.40
2019-04-21T16:32:46.028Z,3.50
2019-04-21T16:35:16.940Z,3.80
2019-04-21T16:37:47.622Z,3.37
2019-04-21T16:40:17.365Z,4.10
2019-04-21T16:42:47.919Z,3.80
2019-04-21T16:45:18.831Z,3.27
2019-04-21T16:47:51.777Z,3.60
2019-04-21T16:50:19.532Z,3.40
2019-04-21T16:52:54.098Z,3.87
2019-04-21T16:55:35.245Z,3.60
2019-04-21T16:58:30.788Z,3.50
2019-04-21T17:01:11.015Z,4.30
2019-04-21T17:03:37.184Z,4.03
2019-04-21T17:06:07.039Z,3.10
2019-04-21T17:08:36.839Z,3.37
2019-04-21T17:11:17.555Z,4.10
2019-04-21T17:13:42.122Z,2.87
2019-04-21T17:16:44.931Z,3.50
2019-04-21T17:18:57.408Z,3.00
2019-04-21T17:21:19.413Z,2.93
2019-04-21T17:23:50.307Z,3.50
2019-04-21T17:26:28.900Z,3.53
2019-04-21T17:29:03.074Z,3.37
2019-04-21T17:31:41.397Z,3.20
2019-04-21T17:34:16.230Z,3.17
2019-04-21T17:36:50.813Z,3.00
2019-04-21T17:39:20.791Z,2.90
2019-04-21T17:42:05.249Z,3.37
2019-04-21T17:44:23.512Z,3.50
2019-04-21T17:47:00.778Z,4.17
2019-04-21T17:49:28.799Z,3.30
2019-04-21T23:53:51.266Z,3.10
2019-04-21T23:56:27.951Z,3.73
2019-04-21T23:58:54.724Z,3.73
